This is the latest recevied weather packets stored in our database for station/object KC3JUG-3. If no packets are shown the sender has not sent any weather packets the latest 10 day(s).
| Time | Temp. | Humidity | Pressure | Rain* | Wind** | Luminosity | Snow |
|---|---|---|---|---|---|---|---|
| 1778165447 | 11.67° C | 66% | 1013.4 hPa | 0 mm | - | - | - |
| 1778163947 | 11.11° C | 66% | 1013.7 hPa | 0 mm | - | - | - |
| 1778162149 | 10.56° C | 70% | 1013.9 hPa | 0 mm | - | - | - |
| 1778160694 | 10.56° C | 69% | 1014 hPa | 0 mm | - | - | - |
| 1778159754 | 10.56° C | 72% | 1014 hPa | 0 mm | - | - | - |
| 1778159447 | 10.56° C | 73% | 1014 hPa | 0 mm | - | - | - |
| 1778156749 | 8.89° C | 81% | 1014 hPa | 0 mm | - | - | - |
| 1778155266 | 8.89° C | 86% | 1013.9 hPa | 0 mm | - | - | - |
| 1778147752 | 8.89° C | 96% | 1012.3 hPa | 0 mm | - | - | - |
| 1778147450 | 8.89° C | 96% | 1012.3 hPa | 0 mm | - | - | - |
| 1778146849 | 8.89° C | 96% | 1012.3 hPa | 0 mm | - | - | - |
| 1778146260 | 8.89° C | 96% | 1012.3 hPa | 0.25 mm | - | - | - |
| 1778145647 | 8.89° C | 96% | 1012.1 hPa | 0.25 mm | - | - | - |
| 1778144465 | 8.89° C | 96% | 1012.1 hPa | 0.25 mm | - | - | - |
| 1778142657 | 9.44° C | 97% | 1011.9 hPa | 0 mm | - | - | - |
| 1778142349 | 9.44° C | 96% | 1011.9 hPa | 0 mm | - | - | - |
| 1778140547 | 9.44° C | 96% | 1011.9 hPa | 0.25 mm | - | - | - |
| 1778139646 | 9.44° C | 96% | 1012 hPa | 0.25 mm | - | - | - |
| 1778136947 | 9.44° C | 96% | 1012.2 hPa | 1.02 mm | - | - | - |
| 1778135747 | 9.44° C | 96% | 1012.5 hPa | 1.27 mm | - | - | - |
| 1778133655 | 10° C | 95% | 1012.2 hPa | 1.02 mm | - | - | - |
| 1778133047 | 10° C | 95% | 1012.3 hPa | 2.29 mm | - | - | - |
| 1778132147 | 10.56° C | 95% | 1012.5 hPa | 4.32 mm | - | - | - |
| 1778131247 | 10.56° C | 95% | 1012.5 hPa | 5.84 mm | - | - | - |
| 1778129159 | 11.11° C | 94% | 1012 hPa | 3.81 mm | - | - | - |
* Rain latest hour (hover to see other rain measurements)
** Current wind speed in m/s (hover to see current wind gust speed)